Terminal Aerodrome Forecast
Issued by NWS North Platte, NE

Home | Current Version | Previous Version | Text Only | Print | Product List | Glossary On
Versions: 1 2 3 4 5 6 7 8 9 10 11 12 13 14 15 16 17 18 19 20 21 22 23 24
000
FTUS43 KLBF 050059 AAA
TAFLBF
TAF AMD
KLBF 050059Z 0501/0524 VRB04KT P6SM FEW120 BKN250
     FM050800 VRB04KT 3SM BR OVC010
     FM051500 VRB04KT P6SM OVC020
     FM051800 VRB06KT P6SM BKN035
     FM051900 VRB06KT P6SM SCT070=

USA.gov is the U.S. government's official web portal to all federal, state and local government web resources and services.